Time;durP1;ratioP1;P1;durP2;ratioP2;P2;SDS_P1;SDS_P2;PMS_P1;PMS_P2;Temp;Humidity;BMP_temperature;BMP_pressure;BME280_temperature;BME280_humidity;BME280_pressure;Samples;Min_cycle;Max_cycle;Signal;HPM_P1;HPM_P2
2023/04/05 00:01:24;;;;;;;1999.90;999.90;;;0.20;99.90;;;;;;5063888;28;20505;-68
2023/04/05 00:03:51;;;;;;;1999.90;999.90;;;0.20;99.90;;;;;;5050646;28;20079;-68
2023/04/05 00:06:17;;;;;;;1999.90;999.90;;;0.30;99.90;;;;;;5047360;28;20176;-69
2023/04/05 00:08:48;;;;;;;1999.90;999.90;;;0.30;99.90;;;;;;5064306;28;20052;-69
2023/04/05 00:11:17;;;;;;;1999.90;999.90;;;0.20;99.90;;;;;;5061315;28;20091;-68
2023/04/05 00:13:43;;;;;;;1999.90;999.90;;;0.20;99.90;;;;;;5066970;28;20036;-69
2023/04/05 00:16:08;;;;;;;1999.90;999.90;;;0.10;99.90;;;;;;5061289;28;20876;-69
2023/04/05 00:18:34;;;;;;;1999.90;999.90;;;0.10;99.90;;;;;;5064295;28;20040;-68
2023/04/05 00:20:59;;;;;;;1999.90;999.90;;;0.00;99.90;;;;;;5064707;28;20040;-68
2023/04/05 00:23:25;;;;;;;1999.90;999.90;;;0.00;99.90;;;;;;5061103;28;20123;-69
2023/04/05 00:25:52;;;;;;;1999.90;999.90;;;-0.10;99.90;;;;;;5079872;28;20076;-69
2023/04/05 00:28:17;;;;;;;1999.90;999.90;;;-0.10;99.90;;;;;;5064771;28;20045;-68
2023/04/05 00:30:43;;;;;;;1999.90;999.90;;;-0.20;99.90;;;;;;5060523;28;20055;-68
2023/04/05 00:33:10;;;;;;;1999.90;999.90;;;-0.20;99.90;;;;;;5065300;28;20125;-68
2023/04/05 00:35:36;;;;;;;1999.90;999.90;;;-0.20;99.90;;;;;;5049310;28;20045;-68
2023/04/05 00:38:01;;;;;;;1999.90;999.90;;;-0.20;99.90;;;;;;5063934;28;20066;-69
2023/04/05 00:40:27;;;;;;;1999.90;999.90;;;-0.20;99.90;;;;;;5062120;28;20087;-69
2023/04/05 00:42:53;;;;;;;1999.90;999.90;;;-0.20;99.90;;;;;;5063903;28;20041;-68
2023/04/05 00:45:18;;;;;;;1999.90;999.90;;;-0.20;99.90;;;;;;5048716;28;20553;-69
2023/04/05 00:47:44;;;;;;;1999.90;999.90;;;-0.20;99.90;;;;;;5046847;28;20048;-69
2023/04/05 00:50:12;;;;;;;1999.90;999.90;;;-0.30;99.90;;;;;;5064888;28;20045;-69
2023/04/05 00:52:40;;;;;;;1999.90;999.90;;;-0.30;99.90;;;;;;5063117;28;20051;-69
2023/04/05 00:55:06;;;;;;;1999.90;999.90;;;-0.30;99.90;;;;;;5064005;28;20036;-69
2023/04/05 00:57:38;;;;;;;1999.90;999.90;;;-0.40;99.90;;;;;;5062512;28;20584;-69
2023/04/05 01:00:10;;;;;;;1999.90;999.90;;;-0.50;99.90;;;;;;5061159;28;20078;-69
2023/04/05 01:02:47;;;;;;;1999.90;999.90;;;-0.60;99.90;;;;;;5061869;28;20036;-69
2023/04/05 01:05:59;;;;;;;1999.90;999.90;;;-0.60;99.90;;;;;;5063026;28;20440;-68
2023/04/05 01:08:39;;;;;;;1999.90;999.90;;;-0.60;99.90;;;;;;5049892;28;20063;-68
2023/04/05 01:11:05;;;;;;;1999.90;999.90;;;-0.70;99.90;;;;;;5062295;28;20052;-68
2023/04/05 01:13:32;;;;;;;1999.90;999.90;;;-0.70;99.90;;;;;;5065482;28;20038;-69
2023/04/05 01:15:58;;;;;;;1999.90;999.90;;;-0.70;99.90;;;;;;5046662;28;20043;-69
2023/04/05 01:18:24;;;;;;;1999.90;999.90;;;-0.80;99.90;;;;;;5045550;28;20029;-69
2023/04/05 01:21:19;;;;;;;1999.90;999.90;;;-0.80;99.90;;;;;;5064319;28;20040;-69
2023/04/05 01:24:08;;;;;;;1999.90;999.90;;;-0.70;99.90;;;;;;5061759;28;20049;-68
2023/04/05 01:27:12;;;;;;;1999.90;999.90;;;-0.70;99.90;;;;;;5048501;28;20070;-69
2023/04/05 01:29:50;;;;;;;1999.90;999.90;;;-0.80;99.90;;;;;;5064481;28;20106;-69
2023/04/05 01:32:39;;;;;;;1999.90;999.90;;;-0.80;99.90;;;;;;5061413;28;20418;-69
2023/04/05 01:35:09;;;;;;;1999.90;999.90;;;-0.80;99.90;;;;;;5059155;28;20493;-68
2023/04/05 01:37:37;;;;;;;1999.90;999.90;;;-0.70;99.90;;;;;;5078158;28;20467;-68
2023/04/05 01:40:04;;;;;;;1999.90;999.90;;;-0.70;99.90;;;;;;5044510;28;20430;-69
2023/04/05 01:42:30;;;;;;;1999.90;999.90;;;-0.80;99.90;;;;;;5062949;28;20040;-69
2023/04/05 01:44:57;;;;;;;1999.90;999.90;;;-0.80;99.90;;;;;;5063822;28;20036;-69
2023/04/05 01:47:22;;;;;;;1999.90;999.90;;;-0.80;99.90;;;;;;5045021;28;20048;-69
2023/04/05 01:49:48;;;;;;;1999.90;999.90;;;-0.80;99.90;;;;;;5060828;28;20040;-68
2023/04/05 01:52:14;;;;;;;1999.90;999.90;;;-0.90;99.90;;;;;;5059977;28;20524;-68
2023/04/05 01:54:39;;;;;;;1999.90;999.90;;;-0.90;99.90;;;;;;5063534;28;21157;-69
2023/04/05 01:57:05;;;;;;;1999.90;999.90;;;-1.00;99.90;;;;;;5061970;28;20499;-68
2023/04/05 01:59:31;;;;;;;1999.90;999.90;;;-1.00;99.90;;;;;;5063107;28;20106;-69
2023/04/05 02:01:56;;;;;;;1999.90;999.90;;;-1.00;99.90;;;;;;5064497;28;20559;-69
2023/04/05 02:04:22;;;;;;;1999.90;999.90;;;-1.00;99.90;;;;;;5061976;28;20465;-68
2023/04/05 02:06:48;;;;;;;1999.90;999.90;;;-0.90;99.90;;;;;;5059848;28;20040;-69
2023/04/05 02:09:13;;;;;;;1999.90;999.90;;;-0.90;99.90;;;;;;5063906;28;20800;-68
2023/04/05 02:11:39;;;;;;;1999.90;999.90;;;-0.80;99.90;;;;;;5043355;28;20036;-69
2023/04/05 02:14:05;;;;;;;1999.90;999.90;;;-0.80;99.90;;;;;;5059856;28;20033;-69
2023/04/05 02:16:33;;;;;;;1999.90;999.90;;;-0.90;99.90;;;;;;5062880;28;20125;-69
2023/04/05 02:18:59;;;;;;;1999.90;999.90;;;-0.90;99.90;;;;;;5061787;28;20040;-69
2023/04/05 02:21:25;;;;;;;1999.90;999.90;;;-0.90;99.90;;;;;;5047265;28;20041;-69
2023/04/05 02:23:52;;;;;;;1999.90;999.90;;;-0.90;99.90;;;;;;5061141;28;20543;-69
2023/04/05 02:26:18;;;;;;;1999.90;999.90;;;-1.00;99.90;;;;;;5062266;28;20425;-68
2023/04/05 02:28:44;;;;;;;1999.90;999.90;;;-1.00;99.90;;;;;;5062553;28;20048;-69
2023/04/05 02:31:13;;;;;;;1999.90;999.90;;;-1.10;99.90;;;;;;5046615;28;20040;-68
2023/04/05 02:33:39;;;;;;;1999.90;999.90;;;-1.10;99.90;;;;;;5060729;28;20052;-69
2023/04/05 02:36:11;;;;;;;1999.90;999.90;;;-1.10;99.90;;;;;;5062556;28;20217;-68
2023/04/05 02:38:37;;;;;;;1999.90;999.90;;;-1.10;99.90;;;;;;5061610;28;20045;-68
2023/04/05 02:41:02;;;;;;;1999.90;999.90;;;-1.10;99.90;;;;;;5060900;28;20119;-68
2023/04/05 02:43:28;;;;;;;1999.90;999.90;;;-1.20;99.90;;;;;;5059740;28;20124;-69
2023/04/05 02:45:54;;;;;;;1999.90;999.90;;;-1.20;99.90;;;;;;5062581;28;20493;-68
2023/04/05 02:48:20;;;;;;;1999.90;999.90;;;-1.20;99.90;;;;;;5044424;28;20484;-68
2023/04/05 02:50:49;;;;;;;1999.90;999.90;;;-1.20;99.90;;;;;;5042920;28;20041;-69
2023/04/05 02:53:16;;;;;;;1999.90;999.90;;;-1.20;99.90;;;;;;5044480;28;20083;-68
2023/04/05 02:55:42;;;;;;;1999.90;999.90;;;-1.30;99.90;;;;;;5044890;28;20040;-68
2023/04/05 02:58:08;;;;;;;1999.90;999.90;;;-1.30;99.90;;;;;;5043500;28;20461;-69
2023/04/05 03:00:33;;;;;;;1999.90;999.90;;;-1.30;99.90;;;;;;5061877;28;20036;-68
2023/04/05 03:02:59;;;;;;;1999.90;999.90;;;-1.30;99.90;;;;;;5058929;28;20040;-69
2023/04/05 03:05:26;;;;;;;1999.90;999.90;;;-1.40;99.90;;;;;;5049002;28;20044;-68
2023/04/05 03:07:52;;;;;;;1999.90;999.90;;;-1.40;99.90;;;;;;5066145;28;20075;-68
2023/04/05 03:10:21;;;;;;;1999.90;999.90;;;-1.40;99.90;;;;;;5067193;28;20040;-68
2023/04/05 03:12:47;;;;;;;1999.90;999.90;;;-1.50;99.90;;;;;;5063511;28;20036;-68
2023/04/05 03:15:13;;;;;;;1999.90;999.90;;;-1.50;99.90;;;;;;5068709;28;20029;-69
2023/04/05 03:17:38;;;;;;;1999.90;999.90;;;-1.60;99.90;;;;;;5048819;28;20039;-69
2023/04/05 03:20:06;;;;;;;1999.90;999.90;;;-1.50;99.90;;;;;;5069873;28;20579;-68
2023/04/05 03:22:32;;;;;;;1999.90;999.90;;;-1.50;99.90;;;;;;5064341;28;20488;-68
2023/04/05 03:24:58;;;;;;;1999.90;999.90;;;-1.50;99.90;;;;;;5064439;28;20060;-69
2023/04/05 03:27:24;;;;;;;1999.90;999.90;;;-1.60;99.90;;;;;;5066429;28;20044;-68
2023/04/05 03:29:50;;;;;;;1999.90;999.90;;;-1.60;99.90;;;;;;5083861;28;20090;-69
2023/04/05 03:32:16;;;;;;;1999.90;999.90;;;-1.70;99.90;;;;;;5062097;28;20493;-68
2023/04/05 03:34:42;;;;;;;1999.90;999.90;;;-1.70;99.90;;;;;;5067488;28;20060;-69
2023/04/05 03:37:08;;;;;;;1999.90;999.90;;;-1.80;99.90;;;;;;5045683;28;20064;-68
2023/04/05 03:39:35;;;;;;;1999.90;999.90;;;-1.80;99.90;;;;;;5048643;28;20537;-69
2023/04/05 03:42:01;;;;;;;1999.90;999.90;;;-1.80;99.90;;;;;;5065656;28;20123;-69
2023/04/05 03:44:26;;;;;;;1999.90;999.90;;;-1.90;99.90;;;;;;5065309;28;20131;-68
2023/04/05 03:46:52;;;;;;;1999.90;999.90;;;-1.90;99.90;;;;;;5046903;28;20570;-68
2023/04/05 03:49:18;;;;;;;1999.90;999.90;;;-1.90;99.90;;;;;;5066435;28;20068;-69
2023/04/05 03:51:45;;;;;;;1999.90;999.90;;;-1.90;99.90;;;;;;5065360;28;20090;-68
2023/04/05 03:54:11;;;;;;;1999.90;999.90;;;-1.90;99.90;;;;;;5048705;28;20040;-69
2023/04/05 03:56:37;;;;;;;1999.90;999.90;;;-1.80;99.90;;;;;;5046879;28;20090;-68
2023/04/05 03:59:03;;;;;;;1999.90;999.90;;;-1.80;99.90;;;;;;5064425;28;21294;-69
2023/04/05 04:01:29;;;;;;;1999.90;999.90;;;-1.90;99.90;;;;;;5065216;28;20234;-68
2023/04/05 04:03:55;;;;;;;1999.90;999.90;;;-1.90;99.90;;;;;;5065125;28;20051;-69
2023/04/05 04:06:20;;;;;;;1999.90;999.90;;;-1.80;99.90;;;;;;5065381;28;20048;-69
2023/04/05 04:08:46;;;;;;;1999.90;999.90;;;-1.80;99.90;;;;;;5067034;28;20593;-69
2023/04/05 04:11:11;;;;;;;1999.90;999.90;;;-1.80;99.90;;;;;;5065827;28;20123;-68
2023/04/05 04:13:37;;;;;;;1999.90;999.90;;;-1.90;99.90;;;;;;5065064;28;20039;-68
2023/04/05 04:16:03;;;;;;;1999.90;999.90;;;-1.90;99.90;;;;;;5062656;28;20484;-68
2023/04/05 04:18:28;;;;;;;1999.90;999.90;;;-1.90;99.90;;;;;;5064564;28;20374;-69
2023/04/05 04:20:55;;;;;;;1999.90;999.90;;;-1.90;99.90;;;;;;5062413;28;20097;-69
2023/04/05 04:23:21;;;;;;;1999.90;999.90;;;-1.90;99.90;;;;;;5064555;28;20127;-68
2023/04/05 04:25:53;;;;;;;1999.90;999.90;;;-1.90;99.90;;;;;;5062812;28;20143;-69
2023/04/05 04:28:19;;;;;;;1999.90;999.90;;;-1.90;99.90;;;;;;5064435;28;20160;-68
2023/04/05 04:30:45;;;;;;;1999.90;999.90;;;-1.90;99.90;;;;;;5063772;28;20139;-69
2023/04/05 04:33:12;;;;;;;1999.90;999.90;;;-1.90;99.90;;;;;;5063068;28;20051;-69
2023/04/05 04:35:37;;;;;;;1999.90;999.90;;;-1.90;99.90;;;;;;5064868;28;20047;-69
2023/04/05 04:38:04;;;;;;;1999.90;999.90;;;-1.90;99.90;;;;;;5062346;28;20040;-69
2023/04/05 04:40:38;;;;;;;1999.90;999.90;;;-2.00;99.90;;;;;;5065089;28;20036;-68
2023/04/05 04:43:13;;;;;;;1999.90;999.90;;;-2.00;99.90;;;;;;5064359;28;20048;-68
2023/04/05 04:45:39;;;;;;;1999.90;999.90;;;-2.00;99.90;;;;;;5045899;28;20032;-68
2023/04/05 04:48:05;;;;;;;1999.90;999.90;;;-2.00;99.90;;;;;;5061569;28;20075;-69
2023/04/05 04:50:31;;;;;;;1999.90;999.90;;;-1.90;99.90;;;;;;5063616;28;20041;-68
2023/04/05 04:53:00;;;;;;;1999.90;999.90;;;-1.90;99.90;;;;;;5062476;28;20036;-68
2023/04/05 04:55:27;;;;;;;1999.90;999.90;;;-1.90;99.90;;;;;;5045053;28;20047;-69
2023/04/05 04:57:54;;;;;;;1999.90;999.90;;;-1.90;99.90;;;;;;5065596;28;20083;-68
2023/04/05 05:00:21;;;;;;;1999.90;999.90;;;-1.90;99.90;;;;;;5064627;28;20856;-69
2023/04/05 05:02:46;;;;;;;1999.90;999.90;;;-1.90;99.90;;;;;;5061918;28;20036;-69
2023/04/05 05:05:13;;;;;;;1999.90;999.90;;;-2.00;99.90;;;;;;5065145;28;20040;-69
2023/04/05 05:07:41;;;;;;;1999.90;999.90;;;-2.10;99.90;;;;;;5063973;28;20397;-68
2023/04/05 05:10:09;;;;;;;1999.90;999.90;;;-2.10;99.90;;;;;;5063356;28;20041;-68
2023/04/05 05:12:34;;;;;;;1999.90;999.90;;;-2.10;99.90;;;;;;5063435;28;20093;-69
2023/04/05 05:15:00;;;;;;;1999.90;999.90;;;-2.10;99.90;;;;;;5062040;28;20032;-68
2023/04/05 05:17:26;;;;;;;1999.90;999.90;;;-2.10;99.90;;;;;;5063121;28;20534;-68
2023/04/05 05:19:51;;;;;;;1999.90;999.90;;;-2.00;99.90;;;;;;5058948;28;20051;-69
2023/04/05 05:22:17;;;;;;;1999.90;999.90;;;-1.90;99.90;;;;;;5062017;28;20040;-69
2023/04/05 05:24:46;;;;;;;1999.90;999.90;;;-1.90;99.90;;;;;;5040848;28;20191;-69
2023/04/05 05:27:12;;;;;;;1999.90;999.90;;;-1.80;99.90;;;;;;5059933;28;20127;-68
2023/04/05 05:29:38;;;;;;;1999.90;999.90;;;-1.80;99.90;;;;;;5043274;28;20128;-69
2023/04/05 05:32:04;;;;;;;1999.90;999.90;;;-1.80;99.90;;;;;;5063855;28;20041;-69
2023/04/05 05:34:29;;;;;;;1999.90;999.90;;;-1.70;99.90;;;;;;5043197;28;20041;-69
2023/04/05 05:36:55;;;;;;;1999.90;999.90;;;-1.70;99.90;;;;;;5062458;28;20075;-68
2023/04/05 05:39:22;;;;;;;1999.90;999.90;;;-1.70;99.90;;;;;;5061312;28;20041;-69
2023/04/05 05:41:48;;;;;;;1999.90;999.90;;;-1.70;99.90;;;;;;5064467;28;20124;-69
2023/04/05 05:44:14;;;;;;;1999.90;999.90;;;-1.60;99.90;;;;;;5063502;28;20090;-70
2023/04/05 05:46:40;;;;;;;1999.90;999.90;;;-1.50;99.90;;;;;;5065566;28;20048;-69
2023/04/05 05:49:05;;;;;;;1999.90;999.90;;;-1.50;99.90;;;;;;5062003;28;20443;-69
2023/04/05 05:51:32;;;;;;;1999.90;999.90;;;-1.50;99.90;;;;;;5046340;28;20040;-69
2023/04/05 05:53:58;;;;;;;1999.90;999.90;;;-1.50;99.90;;;;;;5036750;28;20050;-68
2023/04/05 05:56:23;;;;;;;1999.90;999.90;;;-1.40;99.90;;;;;;5065883;28;20040;-69
2023/04/05 05:58:49;;;;;;;1999.90;999.90;;;-1.40;99.90;;;;;;5064494;28;20140;-68
2023/04/05 06:01:14;;;;;;;1999.90;999.90;;;-1.30;99.90;;;;;;5062966;28;20040;-68
2023/04/05 06:03:40;;;;;;;1999.90;999.90;;;-1.20;99.90;;;;;;5063314;28;20045;-68
2023/04/05 06:06:07;;;;;;;1999.90;999.90;;;-0.90;99.90;;;;;;5063328;28;20044;-68
2023/04/05 06:08:33;;;;;;;1999.90;999.90;;;-0.70;99.90;;;;;;5060433;28;20041;-68
2023/04/05 06:10:58;;;;;;;1999.90;999.90;;;-0.30;99.90;;;;;;5060822;28;20499;-69
2023/04/05 06:13:24;;;;;;;1999.90;999.90;;;0.00;99.90;;;;;;5046138;28;20063;-69
2023/04/05 06:15:50;;;;;;;1999.90;999.90;;;0.40;99.90;;;;;;5061741;28;20040;-69
2023/04/05 06:18:16;;;;;;;1999.90;999.90;;;0.80;99.90;;;;;;5060570;28;20041;-68
2023/04/05 06:20:43;;;;;;;1999.90;999.90;;;1.00;99.90;;;;;;5063271;28;20044;-68
2023/04/05 06:23:12;;;;;;;1999.90;999.90;;;1.10;99.90;;;;;;5044472;28;20045;-69
2023/04/05 06:25:38;;;;;;;1999.90;999.90;;;1.30;99.90;;;;;;5062578;28;20060;-68
2023/04/05 06:28:05;;;;;;;1999.90;999.90;;;1.60;99.90;;;;;;5040848;28;20064;-69
2023/04/05 06:30:32;;;;;;;1999.90;999.90;;;1.90;99.90;;;;;;5060583;28;20504;-69
2023/04/05 06:32:58;;;;;;;1999.90;999.90;;;2.10;99.90;;;;;;5060773;28;20040;-69
2023/04/05 06:35:24;;;;;;;1999.90;999.90;;;2.00;99.90;;;;;;5039882;28;20457;-69
2023/04/05 06:37:50;;;;;;;1999.90;999.90;;;2.00;99.90;;;;;;5060639;28;20123;-69
2023/04/05 06:40:17;;;;;;;1999.90;999.90;;;2.10;99.90;;;;;;5061929;28;20119;-69
2023/04/05 06:42:43;;;;;;;1999.90;999.90;;;2.30;99.90;;;;;;5041826;28;20041;-69
2023/04/05 06:45:10;;;;;;;1999.90;999.90;;;2.20;99.90;;;;;;5046049;28;20032;-69
2023/04/05 06:47:37;;;;;;;1999.90;999.90;;;2.10;99.90;;;;;;5062718;28;20435;-69
2023/04/05 06:50:04;;;;;;;1999.90;999.90;;;2.10;99.90;;;;;;5044158;28;20591;-69
2023/04/05 06:52:31;;;;;;;1999.90;999.90;;;2.10;99.90;;;;;;5061995;28;20151;-69
2023/04/05 06:54:56;;;;;;;1999.90;999.90;;;2.20;99.90;;;;;;5065396;28;20033;-69
2023/04/05 06:57:22;;;;;;;1999.90;999.90;;;2.20;99.90;;;;;;5041268;28;20097;-69
2023/04/05 06:59:47;;;;;;;1999.90;999.90;;;2.30;99.90;;;;;;5063403;28;20562;-69
2023/04/05 07:02:13;;;;;;;1999.90;999.90;;;2.30;99.90;;;;;;5060834;28;20045;-69
2023/04/05 07:04:40;;;;;;;1999.90;999.90;;;2.40;99.90;;;;;;5065872;28;20052;-70
2023/04/05 07:07:05;;;;;;;1999.90;999.90;;;2.50;99.90;;;;;;5062683;28;20040;-69
2023/04/05 07:09:32;;;;;;;1999.90;999.90;;;2.90;99.90;;;;;;5061513;28;20037;-69
2023/04/05 07:11:58;;;;;;;1999.90;999.90;;;3.10;99.90;;;;;;5062252;28;20435;-69
2023/04/05 07:14:24;;;;;;;1999.90;999.90;;;3.20;99.90;;;;;;5062012;28;20043;-70
2023/04/05 07:16:51;;;;;;;1999.90;999.90;;;3.20;99.90;;;;;;5049765;28;20040;-70
2023/04/05 07:19:17;;;;;;;1999.90;999.90;;;3.30;99.90;;;;;;5058771;28;20053;-70
2023/04/05 07:21:43;;;;;;;1999.90;999.90;;;3.40;99.90;;;;;;5048769;28;20045;-69
2023/04/05 07:24:09;;;;;;;1999.90;999.90;;;3.40;99.90;;;;;;5047760;28;20442;-69
2023/04/05 07:26:36;;;;;;;1999.90;999.90;;;3.50;99.90;;;;;;5066200;28;20534;-69
2023/04/05 07:29:03;;;;;;;1999.90;999.90;;;3.50;99.90;;;;;;5066061;28;20409;-69
2023/04/05 07:31:28;;;;;;;1999.90;999.90;;;3.70;99.90;;;;;;5065354;28;20048;-70
2023/04/05 07:33:54;;;;;;;1999.90;999.90;;;3.90;99.90;;;;;;5066116;28;20063;-70
2023/04/05 07:36:20;;;;;;;1999.90;999.90;;;4.00;99.90;;;;;;5059569;28;20068;-70
2023/04/05 07:38:46;;;;;;;1999.90;999.90;;;4.00;99.90;;;;;;5063491;28;20493;-70
2023/04/05 07:41:11;;;;;;;1999.90;999.90;;;4.10;99.90;;;;;;5061749;28;20191;-70
2023/04/05 07:43:37;;;;;;;1999.90;999.90;;;4.20;99.90;;;;;;5059311;28;20094;-69
2023/04/05 07:46:04;;;;;;;1999.90;999.90;;;4.20;99.90;;;;;;5064486;28;20046;-69
2023/04/05 07:48:29;;;;;;;1999.90;999.90;;;4.30;99.90;;;;;;5062214;28;20044;-70
2023/04/05 07:50:55;;;;;;;1999.90;999.90;;;4.40;99.90;;;;;;5064808;28;20534;-70
2023/04/05 07:53:21;;;;;;;1999.90;999.90;;;4.50;99.90;;;;;;5064891;28;20127;-69
2023/04/05 07:55:46;;;;;;;1999.90;999.90;;;4.80;99.90;;;;;;5053434;28;20037;-70
2023/04/05 07:58:13;;;;;;;1999.90;999.90;;;5.00;99.90;;;;;;5063541;28;20035;-69
2023/04/05 08:00:38;;;;;;;1999.90;999.90;;;5.10;99.90;;;;;;5064027;28;20071;-70
2023/04/05 08:03:04;;;;;;;1999.90;999.90;;;5.10;99.90;;;;;;5061893;28;20044;-70
2023/04/05 08:05:30;;;;;;;1999.90;999.90;;;5.30;99.90;;;;;;5042679;28;20044;-69
2023/04/05 08:07:56;;;;;;;1999.90;999.90;;;5.30;99.90;;;;;;5061201;28;20458;-69
2023/04/05 08:10:23;;;;;;;1999.90;999.90;;;5.40;99.90;;;;;;5049180;28;20036;-70
2023/04/05 08:12:48;;;;;;;1999.90;999.90;;;5.50;99.90;;;;;;5062671;28;20141;-71
2023/04/05 08:15:14;;;;;;;1999.90;999.90;;;5.50;99.90;;;;;;5044870;28;20493;-71
2023/04/05 08:17:40;;;;;;;1999.90;999.90;;;5.60;99.90;;;;;;5062089;28;20045;-71
2023/04/05 08:20:06;;;;;;;1999.90;999.90;;;5.70;99.90;;;;;;5045857;28;20033;-70
2023/04/05 08:22:32;;;;;;;1999.90;999.90;;;5.80;99.90;;;;;;5042364;28;20040;-68
2023/04/05 08:24:57;;;;;;;1999.90;999.90;;;5.90;99.90;;;;;;5061189;28;20040;-68
2023/04/05 08:27:23;;;;;;;1999.90;999.90;;;6.00;99.90;;;;;;5045992;28;20500;-69
2023/04/05 08:29:49;;;;;;;1999.90;999.90;;;6.10;99.90;;;;;;5061045;28;20052;-69
2023/04/05 08:32:14;;;;;;;1999.90;999.90;;;6.20;99.90;;;;;;5064551;28;20404;-70
2023/04/05 08:34:40;;;;;;;1999.90;999.90;;;6.30;99.90;;;;;;5046489;28;20036;-69
2023/04/05 08:37:06;;;;;;;1999.90;999.90;;;6.40;99.90;;;;;;5048968;28;20439;-69
2023/04/05 08:39:34;;;;;;;1999.90;999.90;;;6.60;99.90;;;;;;5043323;28;20067;-69
2023/04/05 08:42:14;;;;;;;1999.90;999.90;;;6.80;99.90;;;;;;5058043;28;20439;-69
2023/04/05 08:44:41;;;;;;;1999.90;999.90;;;7.30;99.90;;;;;;5079217;28;20044;-69
2023/04/05 08:47:13;;;;;;;1999.90;999.90;;;7.70;99.90;;;;;;5060913;28;20128;-69
2023/04/05 08:49:43;;;;;;;1999.90;999.90;;;8.00;99.90;;;;;;5045471;28;20045;-70
2023/04/05 08:52:08;;;;;;;1999.90;999.90;;;8.70;99.90;;;;;;5060609;28;20048;-70
2023/04/05 08:54:34;;;;;;;1999.90;999.90;;;9.60;99.90;;;;;;5061331;28;20033;-70
2023/04/05 08:57:05;;;;;;;1999.90;999.90;;;10.20;99.90;;;;;;5063237;28;20488;-70
2023/04/05 08:59:35;;;;;;;1999.90;999.90;;;10.60;99.90;;;;;;5042088;28;20051;-70
2023/04/05 09:02:05;;;;;;;1999.90;999.90;;;10.90;99.90;;;;;;5062136;28;20044;-69
2023/04/05 09:04:38;;;;;;;1999.90;999.90;;;11.20;99.80;;;;;;5062473;28;20040;-70
2023/04/05 09:07:06;;;;;;;1999.90;999.90;;;11.50;98.80;;;;;;5045156;28;20493;-70
2023/04/05 09:09:35;;;;;;;1999.90;999.90;;;11.60;96.10;;;;;;5045179;28;20094;-69
2023/04/05 09:12:03;;;;;;;1999.90;999.90;;;11.70;95.80;;;;;;5060415;28;20450;-70
2023/04/05 09:14:32;;;;;;;1999.90;999.90;;;11.90;95.00;;;;;;5061020;28;20069;-70
2023/04/05 09:17:02;;;;;;;1999.90;999.90;;;11.90;95.30;;;;;;5053495;28;20060;-69
2023/04/05 09:19:27;;;;;;;1999.90;999.90;;;11.80;94.40;;;;;;5064825;28;20118;-70
2023/04/05 09:22:01;;;;;;;1999.90;999.90;;;12.00;95.00;;;;;;5063527;28;20040;-70
2023/04/05 09:24:40;;;;;;;1999.90;999.90;;;12.10;93.30;;;;;;5061898;28;20047;-69
2023/04/05 09:27:11;;;;;;;1999.90;999.90;;;12.10;91.80;;;;;;5046201;28;20064;-70
2023/04/05 09:29:38;;;;;;;1999.90;999.90;;;12.10;90.60;;;;;;5059982;28;20414;-69
2023/04/05 09:32:05;;;;;;;1999.90;999.90;;;12.10;91.20;;;;;;5061273;28;20485;-70
2023/04/05 09:34:37;;;;;;;1999.90;999.90;;;12.00;91.50;;;;;;5055053;28;20049;-70
2023/04/05 09:37:15;;;;;;;1999.90;999.90;;;12.00;91.40;;;;;;5054201;28;20037;-69
2023/04/05 09:39:41;;;;;;;1999.90;999.90;;;11.90;90.20;;;;;;5060698;28;20416;-70
2023/04/05 09:42:14;;;;;;;1999.90;999.90;;;11.80;90.00;;;;;;5059657;28;20048;-69
2023/04/05 09:45:04;;;;;;;1999.90;999.90;;;11.60;87.90;;;;;;5060176;28;20055;-70
2023/04/05 09:47:33;;;;;;;1999.90;999.90;;;11.50;88.50;;;;;;5063451;28;20400;-69
2023/04/05 09:50:18;;;;;;;1999.90;999.90;;;11.40;89.00;;;;;;5063541;28;20117;-70
2023/04/05 09:52:44;;;;;;;1999.90;999.90;;;11.40;89.10;;;;;;5058655;28;20102;-70
2023/04/05 09:55:11;;;;;;;1999.90;999.90;;;11.40;89.00;;;;;;5062819;28;20036;-69
2023/04/05 09:57:38;;;;;;;1999.90;999.90;;;11.50;88.80;;;;;;5058777;28;20032;-69
2023/04/05 10:00:08;;;;;;;1999.90;999.90;;;11.40;87.10;;;;;;5080258;28;20093;-70
2023/04/05 10:02:38;;;;;;;1999.90;999.90;;;11.50;87.80;;;;;;5045946;28;20119;-69
2023/04/05 10:05:15;;;;;;;1999.90;999.90;;;11.60;85.60;;;;;;5046480;28;20078;-69
2023/04/05 10:07:41;;;;;;;1999.90;999.90;;;11.60;85.10;;;;;;5056584;28;20045;-69
2023/04/05 10:10:11;;;;;;;1999.90;999.90;;;11.50;84.40;;;;;;5048784;28;20392;-70
2023/04/05 10:12:40;;;;;;;1999.90;999.90;;;11.30;83.80;;;;;;5056209;28;20033;-70
2023/04/05 10:15:09;;;;;;;1999.90;999.90;;;11.30;86.20;;;;;;5064282;28;20040;-69
2023/04/05 10:17:48;;;;;;;1999.90;999.90;;;11.40;84.40;;;;;;5060784;28;20037;-69
2023/04/05 10:20:18;;;;;;;1999.90;999.90;;;11.30;80.30;;;;;;5061762;28;20531;-69
2023/04/05 10:23:03;;;;;;;1999.90;999.90;;;11.00;81.90;;;;;;5059388;28;20055;-69
2023/04/05 10:25:51;;;;;;;1999.90;999.90;;;11.00;82.90;;;;;;5063186;28;20056;-69
2023/04/05 10:28:35;;;;;;;1999.90;999.90;;;11.30;83.40;;;;;;5038579;28;20159;-70
2023/04/05 10:31:37;;;;;;;1999.90;999.90;;;11.50;82.90;;;;;;5060079;28;20048;-70
2023/04/05 10:34:09;;;;;;;1999.90;999.90;;;11.60;81.10;;;;;;5059476;28;20098;-69
2023/04/05 10:36:57;;;;;;;1999.90;999.90;;;11.90;83.90;;;;;;5059076;28;20128;-69
2023/04/05 10:39:39;;;;;;;1999.90;999.90;;;12.10;84.80;;;;;;5055256;28;20037;-70
2023/04/05 10:42:07;;;;;;;1999.90;999.90;;;12.30;82.70;;;;;;5059869;28;20412;-69
2023/04/05 10:44:36;;;;;;;1999.90;999.90;;;12.30;80.80;;;;;;5059213;28;20044;-70
2023/04/05 10:47:04;;;;;;;1999.90;999.90;;;12.20;77.70;;;;;;5048569;28;20464;-69
2023/04/05 10:49:35;;;;;;;1999.90;999.90;;;12.10;80.30;;;;;;5055146;28;20044;-69
2023/04/05 10:52:02;;;;;;;1999.90;999.90;;;12.10;80.60;;;;;;5055610;28;20053;-70
2023/04/05 10:54:31;;;;;;;1999.90;999.90;;;12.20;81.00;;;;;;5037682;28;20128;-70
2023/04/05 10:56:57;;;;;;;1999.90;999.90;;;12.10;79.50;;;;;;5036383;28;20079;-70
2023/04/05 10:59:25;;;;;;;1999.90;999.90;;;12.20;78.90;;;;;;5034875;28;20040;-69
2023/04/05 11:01:52;;;;;;;1999.90;999.90;;;12.30;81.30;;;;;;5052510;28;20701;-69
2023/04/05 11:04:17;;;;;;;1999.90;999.90;;;12.20;79.10;;;;;;5048746;28;20052;-70
2023/04/05 11:06:46;;;;;;;1999.90;999.90;;;12.20;78.80;;;;;;5056849;28;20055;-69
2023/04/05 11:09:20;;;;;;;1999.90;999.90;;;12.40;80.40;;;;;;5051612;28;20044;-70
2023/04/05 11:11:46;;;;;;;1999.90;999.90;;;12.10;75.30;;;;;;5052381;28;20546;-69
2023/04/05 11:14:25;;;;;;;1999.90;999.90;;;11.80;78.90;;;;;;5035590;28;20078;-69
2023/04/05 11:16:55;;;;;;;1999.90;999.90;;;11.80;79.60;;;;;;5039314;28;20040;-70
2023/04/05 11:19:47;;;;;;;1999.90;999.90;;;11.90;78.90;;;;;;5036579;28;20043;-69
2023/04/05 11:22:25;;;;;;;1999.90;999.90;;;12.10;78.40;;;;;;5056225;28;20055;-69
2023/04/05 11:24:55;;;;;;;1999.90;999.90;;;12.20;79.10;;;;;;5043058;28;20054;-68
2023/04/05 11:27:31;;;;;;;1999.90;999.90;;;12.30;77.20;;;;;;5062761;28;20128;-69
2023/04/05 11:30:02;;;;;;;1999.90;999.90;;;12.30;79.10;;;;;;5055121;28;20040;-69
2023/04/05 11:32:42;;;;;;;1999.90;999.90;;;12.50;79.10;;;;;;5063490;28;20045;-69
2023/04/05 11:35:21;;;;;;;1999.90;999.90;;;12.50;75.70;;;;;;5037323;28;20128;-69
2023/04/05 11:37:59;;;;;;;1999.90;999.90;;;12.60;78.50;;;;;;5079972;28;20053;-69
2023/04/05 11:40:36;;;;;;;1999.90;999.90;;;12.90;77.40;;;;;;5060757;28;20041;-69
2023/04/05 11:43:10;;;;;;;1999.90;999.90;;;12.90;76.50;;;;;;5048097;28;20037;-70
2023/04/05 11:45:38;;;;;;;1999.90;999.90;;;12.80;74.50;;;;;;5045619;28;20032;-70
2023/04/05 11:48:05;;;;;;;1999.90;999.90;;;12.70;72.70;;;;;;5062682;28;20041;-70
2023/04/05 11:50:31;;;;;;;1999.90;999.90;;;12.50;71.00;;;;;;5063534;28;20048;-70
2023/04/05 11:53:14;;;;;;;1999.90;999.90;;;12.50;75.00;;;;;;5063802;28;20066;-70
2023/04/05 11:55:45;;;;;;;1999.90;999.90;;;12.60;74.70;;;;;;5062771;28;20171;-69
2023/04/05 11:58:21;;;;;;;1999.90;999.90;;;12.70;75.70;;;;;;5062763;28;20045;-70
2023/04/05 12:01:00;;;;;;;1999.90;999.90;;;12.90;77.00;;;;;;5061868;28;20414;-69
2023/04/05 12:03:30;;;;;;;1999.90;999.90;;;13.10;72.60;;;;;;5061889;28;20055;-70
2023/04/05 12:05:58;;;;;;;1999.90;999.90;;;13.30;73.90;;;;;;5063043;28;20123;-69
2023/04/05 12:08:49;;;;;;;1999.90;999.90;;;13.50;75.50;;;;;;5064674;28;20044;-69